Time;durP1;ratioP1;P1;durP2;ratioP2;P2;SDS_P1;SDS_P2;PMS_P1;PMS_P2;Temp;Humidity;BMP_temperature;BMP_pressure;BME280_temperature;BME280_humidity;BME280_pressure;Samples;Min_cycle;Max_cycle;Signal;HPM_P1;HPM_P2
2022/12/22 03:26:48;;;;;;;64.05;19.15;;;5.10;99.90;;;;;;5098521;28;20051;-78
2022/12/22 03:29:16;;;;;;;56.25;18.83;;;7.20;99.90;;;;;;5081064;28;20137;-78
2022/12/22 03:31:43;;;;;;;72.15;21.30;;;5.20;99.90;;;;;;5114660;28;20055;-80
2022/12/22 03:34:11;;;;;;;59.00;20.05;;;6.10;99.90;;;;;;5115843;28;20083;-78
2022/12/22 03:36:38;;;;;;;64.55;19.67;;;7.20;99.90;;;;;;5114949;28;20056;-77
2022/12/22 03:39:06;;;;;;;65.43;20.15;;;5.40;99.90;;;;;;5097720;28;20039;-78
2022/12/22 03:47:22;;;;;;;66.72;19.45;;;5.50;99.90;;;;;;5013265;28;20053;-78
2022/12/22 03:49:50;;;;;;;74.15;22.48;;;5.60;99.90;;;;;;5045166;28;20067;-78
2022/12/22 03:52:17;;;;;;;71.60;21.92;;;5.70;99.90;;;;;;5114963;28;20054;-79
2022/12/22 03:54:45;;;;;;;79.10;23.58;;;7.50;99.90;;;;;;5115309;28;20069;-79
2022/12/22 03:57:12;;;;;;;81.03;24.05;;;6.90;99.90;;;;;;5114767;28;20352;-79
2022/12/22 03:59:40;;;;;;;79.20;23.45;;;6.10;99.90;;;;;;5097094;28;20383;-77
2022/12/22 04:02:07;;;;;;;91.80;25.15;;;6.30;99.90;;;;;;5114748;28;20054;-78
2022/12/22 04:04:35;;;;;;;100.53;25.70;;;6.40;99.90;;;;;;5079491;28;20380;-78
2022/12/22 04:07:03;;;;;;;89.78;24.52;;;8.00;99.90;;;;;;5115100;28;20055;-79
2022/12/22 04:09:30;;;;;;;84.90;25.00;;;6.70;99.90;;;;;;5114956;28;20047;-80
2022/12/22 04:14:44;;;;;;;79.93;22.48;;;7.40;99.90;;;;;;5097290;28;20042;-79
2022/12/22 04:17:11;;;;;;;76.30;23.63;;;6.90;99.90;;;;;;5114329;28;20051;-79
2022/12/22 04:19:39;;;;;;;81.90;21.83;;;7.00;99.90;;;;;;5114836;28;20051;-79
2022/12/22 04:22:06;;;;;;;76.65;24.52;;;7.00;99.90;;;;;;5114942;28;20055;-78
2022/12/22 04:24:34;;;;;;;72.97;23.13;;;7.20;99.90;;;;;;5114275;28;20364;-78
2022/12/22 04:27:02;;;;;;;86.10;24.25;;;7.20;99.90;;;;;;5097514;28;20050;-78
2022/12/22 04:29:29;;;;;;;84.45;23.20;;;7.20;99.90;;;;;;5115364;28;20044;-78
2022/12/22 04:31:57;;;;;;;87.32;23.38;;;9.10;99.90;;;;;;5113933;28;20040;-80
2022/12/22 04:34:24;;;;;;;80.13;25.25;;;7.70;99.90;;;;;;5079988;28;20047;-78
2022/12/22 04:36:52;;;;;;;77.30;22.35;;;9.10;99.90;;;;;;5096943;28;20066;-78
2022/12/22 04:39:20;;;;;;;83.40;23.15;;;9.20;99.90;;;;;;5114654;28;20051;-78
2022/12/22 04:41:47;;;;;;;79.80;20.73;;;7.20;99.90;;;;;;5114976;28;20047;-78
2022/12/22 04:44:15;;;;;;;82.88;21.10;;;9.50;99.90;;;;;;5114015;28;20048;-79
2022/12/22 04:46:42;;;;;;;105.38;22.20;;;7.10;99.90;;;;;;5114996;28;20048;-78
2022/12/22 04:49:10;;;;;;;78.18;20.73;;;7.60;99.90;;;;;;5115332;28;20467;-78
2022/12/22 04:51:37;;;;;;;66.88;19.30;;;7.00;99.90;;;;;;5079492;28;20035;-79
2022/12/22 04:54:05;;;;;;;73.60;19.88;;;8.90;99.90;;;;;;5080607;28;20048;-79
2022/12/22 04:56:32;;;;;;;72.13;19.27;;;8.40;99.90;;;;;;5096591;28;20051;-79
2022/12/22 04:59:00;;;;;;;77.05;18.98;;;7.30;99.90;;;;;;5114564;28;20048;-78
2022/12/22 05:01:27;;;;;;;71.50;17.95;;;7.00;99.90;;;;;;5114309;28;20051;-78
2022/12/22 05:03:55;;;;;;;74.30;16.80;;;7.00;99.90;;;;;;5062349;28;20070;-79
2022/12/22 05:06:22;;;;;;;66.72;16.35;;;6.90;99.90;;;;;;5096894;28;20043;-79
2022/12/22 05:08:50;;;;;;;62.83;16.02;;;6.90;99.90;;;;;;5063100;28;20472;-81
2022/12/22 05:11:17;;;;;;;64.53;16.50;;;7.90;99.90;;;;;;5113564;28;20047;-79
2022/12/22 05:13:45;;;;;;;67.95;16.15;;;7.70;99.90;;;;;;5097459;28;20490;-80
2022/12/22 05:16:15;;;;;;;59.72;14.95;;;7.80;99.90;;;;;;5100975;28;20051;-79
2022/12/22 05:18:44;;;;;;;55.92;14.85;;;6.80;99.90;;;;;;5099232;28;20048;-79
2022/12/22 05:21:17;;;;;;;64.65;14.63;;;6.90;99.90;;;;;;5100456;28;20048;-80
2022/12/22 05:23:46;;;;;;;54.63;14.15;;;8.00;99.90;;;;;;5082798;28;20043;-80
2022/12/22 05:26:14;;;;;;;60.38;14.77;;;7.80;99.90;;;;;;5118000;28;20051;-78
2022/12/22 05:28:43;;;;;;;60.67;13.88;;;6.70;99.90;;;;;;5100406;28;20054;-79
2022/12/22 05:31:19;;;;;;;57.25;14.27;;;8.80;99.90;;;;;;5116859;28;20118;-80
2022/12/22 05:33:47;;;;;;;55.63;13.30;;;6.70;99.90;;;;;;5100186;28;20043;-80
2022/12/22 05:36:14;;;;;;;51.85;13.20;;;6.70;99.90;;;;;;5099924;28;20050;-79
2022/12/22 05:38:43;;;;;;;54.50;13.50;;;6.60;99.90;;;;;;5098972;28;20047;-78
2022/12/22 05:41:11;;;;;;;54.33;13.98;;;6.70;99.90;;;;;;5099839;28;20479;-81
2022/12/22 05:43:38;;;;;;;60.65;13.95;;;7.00;99.90;;;;;;5116989;28;20043;-79
2022/12/22 05:46:08;;;;;;;55.72;13.70;;;6.40;99.90;;;;;;5117556;28;20050;-79
2022/12/22 05:48:37;;;;;;;53.45;13.60;;;6.30;99.90;;;;;;5099888;28;20039;-79
2022/12/22 05:51:08;;;;;;;62.13;11.60;;;8.40;99.90;;;;;;5116778;28;20050;-78
2022/12/22 05:53:36;;;;;;;62.05;13.20;;;7.40;99.90;;;;;;5117394;28;20044;-80
2022/12/22 05:56:04;;;;;;;76.90;12.57;;;6.00;99.90;;;;;;5083440;28;20059;-78
2022/12/22 05:58:32;;;;;;;42.22;12.13;;;5.90;99.90;;;;;;5098637;28;20065;-79
2022/12/22 06:01:00;;;;;;;;;;;5.80;99.90;;;;;;5099487;28;20056;-80
2022/12/22 06:03:28;;;;;;;71.22;12.27;;;5.70;99.90;;;;;;5098727;28;19919;-80
2022/12/22 06:05:57;;;;;;;58.40;11.98;;;4.00;99.90;;;;;;5116963;28;20043;-79
2022/12/22 06:08:25;;;;;;;64.65;12.15;;;6.60;99.90;;;;;;5099991;28;20047;-80
2022/12/22 06:10:53;;;;;;;;;;;5.50;99.90;;;;;;5098915;28;20051;-79
2022/12/22 06:13:21;;;;;;;;;;;5.40;99.90;;;;;;5100184;28;20276;-78
2022/12/22 06:15:48;;;;;;;58.15;10.73;;;5.30;99.90;;;;;;5099396;28;19919;-79
2022/12/22 06:18:16;;;;;;;72.65;11.88;;;5.20;99.90;;;;;;5081277;28;20040;-80
2022/12/22 06:20:47;;;;;;;71.43;13.40;;;5.10;99.90;;;;;;5116775;28;20121;-81
2022/12/22 06:23:14;;;;;;;91.18;13.57;;;5.00;99.90;;;;;;5081663;28;20455;-79
2022/12/22 06:25:42;;;;;;;76.47;12.43;;;4.90;99.90;;;;;;5116872;28;20459;-79
2022/12/22 06:28:09;;;;;;;64.50;11.05;;;6.20;99.90;;;;;;5082389;28;20051;-80
2022/12/22 06:30:37;;;;;;;95.55;11.45;;;7.30;99.90;;;;;;5081286;28;20379;-80
2022/12/22 06:33:04;;;;;;;65.25;12.20;;;4.70;99.90;;;;;;5098687;28;20052;-79
2022/12/22 06:35:32;;;;;;;57.22;12.35;;;4.60;99.90;;;;;;5098826;28;20475;-80
2022/12/22 06:37:59;;;;;;;54.95;11.93;;;6.50;99.90;;;;;;5081163;28;20059;-79
2022/12/22 06:40:27;;;;;;;49.22;10.07;;;4.80;99.90;;;;;;5116490;28;20043;-80
2022/12/22 06:43:09;;;;;;;38.08;10.73;;;5.90;99.90;;;;;;5098544;28;20058;-79
2022/12/22 06:45:40;;;;;;;35.22;9.43;;;6.00;99.90;;;;;;5098104;28;20070;-79
2022/12/22 06:48:09;;;;;;;43.00;9.55;;;4.50;99.90;;;;;;5065888;28;20055;-80
2022/12/22 06:50:36;;;;;;;34.42;8.38;;;5.50;99.90;;;;;;5097958;28;20040;-80
2022/12/22 06:53:05;;;;;;;35.05;8.35;;;7.00;99.90;;;;;;5098708;28;20487;-81
2022/12/22 06:55:33;;;;;;;31.00;7.75;;;6.40;99.90;;;;;;5081969;28;20376;-80
2022/12/22 06:58:01;;;;;;;28.13;7.07;;;7.20;99.90;;;;;;5080519;28;20043;-80
2022/12/22 07:00:29;;;;;;;26.55;6.90;;;4.40;99.90;;;;;;5116041;28;20044;-80
2022/12/22 07:02:57;;;;;;;17.33;5.38;;;6.50;99.90;;;;;;5080883;28;20048;-80
2022/12/22 07:05:29;;;;;;;21.33;5.95;;;6.50;99.90;;;;;;5080125;28;20502;-81
2022/12/22 07:08:00;;;;;;;25.48;7.00;;;6.00;99.90;;;;;;5081462;28;20487;-79
2022/12/22 07:13:27;;;;;;;24.23;7.30;;;4.70;99.90;;;;;;5081601;28;20052;-80
2022/12/22 07:15:54;;;;;;;22.23;6.65;;;4.40;99.90;;;;;;5098255;28;20054;-80
2022/12/22 07:18:33;;;;;;;28.30;7.22;;;6.70;99.90;;;;;;5081375;28;20452;-78
2022/12/22 07:21:06;;;;;;;30.42;7.65;;;7.10;99.90;;;;;;5080572;28;20035;-80
2022/12/22 07:23:34;;;;;;;31.98;8.15;;;6.40;99.90;;;;;;5114583;28;20043;-80
2022/12/22 07:26:07;;;;;;;46.55;8.40;;;7.10;99.90;;;;;;5115834;28;20464;-80
2022/12/22 07:28:36;;;;;;;36.40;8.43;;;5.40;99.90;;;;;;5081133;28;20043;-81
2022/12/22 07:31:05;;;;;;;38.35;8.30;;;5.20;99.90;;;;;;5096692;28;20044;-81
2022/12/22 07:33:33;;;;;;;38.92;8.02;;;7.00;99.90;;;;;;5080611;28;20070;-80
2022/12/22 07:36:19;;;;;;;38.60;8.35;;;4.90;99.90;;;;;;5080935;28;20456;-81
2022/12/22 07:38:50;;;;;;;36.13;8.98;;;7.30;99.90;;;;;;5096776;28;20044;-80
2022/12/22 07:44:06;;;;;;;37.40;8.70;;;7.70;99.90;;;;;;5095399;28;20048;-81
2022/12/22 07:47:12;;;;;;;41.72;9.90;;;5.40;99.90;;;;;;5096943;28;20067;-83
2022/12/22 07:53:21;;;;;;;69.43;11.85;;;5.50;99.90;;;;;;5097528;28;20048;-82
2022/12/22 07:55:49;;;;;;;70.05;11.98;;;5.40;99.90;;;;;;5098300;28;20044;-79
2022/12/22 07:58:19;;;;;;;71.22;12.20;;;5.90;99.90;;;;;;5096116;28;20043;-80
2022/12/22 08:00:47;;;;;;;78.95;12.90;;;5.80;99.90;;;;;;5079845;28;20066;-79
2022/12/22 08:03:17;;;;;;;115.20;15.18;;;6.50;99.90;;;;;;5062683;28;20043;-79
2022/12/22 08:05:45;;;;;;;76.57;13.65;;;5.80;99.90;;;;;;5114621;28;20040;-80
2022/12/22 08:08:13;;;;;;;82.68;14.07;;;8.70;99.90;;;;;;5097132;28;20055;-81
2022/12/22 08:10:41;;;;;;;90.03;13.75;;;8.50;99.90;;;;;;5095718;28;20054;-80
2022/12/22 08:13:09;;;;;;;82.60;13.40;;;6.30;99.90;;;;;;5114370;28;20352;-80
2022/12/22 08:15:37;;;;;;;109.78;14.48;;;8.00;99.90;;;;;;5096669;28;20054;-81
2022/12/22 08:18:04;;;;;;;109.68;14.65;;;7.40;99.90;;;;;;5079476;28;20387;-80
2022/12/22 08:20:36;;;;;;;108.22;15.23;;;6.20;99.90;;;;;;5114777;28;20047;-80
2022/12/22 08:23:07;;;;;;;101.30;14.57;;;6.40;99.90;;;;;;5097261;28;20048;-79
2022/12/22 08:25:35;;;;;;;92.57;13.75;;;9.00;99.90;;;;;;5096086;28;20051;-80
2022/12/22 08:28:05;;;;;;;88.68;13.27;;;8.70;99.90;;;;;;5097481;28;20044;-79
2022/12/22 08:30:41;;;;;;;86.03;13.00;;;6.50;99.90;;;;;;5096376;28;20051;-79
2022/12/22 08:33:18;;;;;;;77.60;13.50;;;8.90;99.90;;;;;;5080954;28;20048;-79
2022/12/22 08:35:57;;;;;;;81.93;13.43;;;8.80;99.90;;;;;;5064816;28;20392;-80
2022/12/22 08:38:38;;;;;;;76.07;13.52;;;6.70;99.90;;;;;;5113967;28;20048;-80
2022/12/22 08:41:14;;;;;;;77.03;13.40;;;6.70;99.90;;;;;;5096526;28;20043;-79
2022/12/22 08:43:49;;;;;;;68.38;13.35;;;5.60;99.90;;;;;;5095150;28;20051;-79
2022/12/22 08:46:16;;;;;;;63.28;14.02;;;7.00;99.90;;;;;;5062690;28;20054;-80
2022/12/22 08:48:50;;;;;;;52.58;14.07;;;8.90;99.90;;;;;;5096672;28;20059;-80
2022/12/22 08:54:54;;;;;;;59.90;15.40;;;8.70;99.90;;;;;;5099934;28;20052;-79
2022/12/22 08:57:22;;;;;;;72.90;17.52;;;7.50;99.90;;;;;;5100114;28;20036;-80
2022/12/22 08:59:59;;;;;;;73.43;21.52;;;7.20;99.90;;;;;;5100652;28;20074;-80
2022/12/22 09:02:45;;;;;;;74.97;20.40;;;6.80;99.90;;;;;;5101691;28;20131;-80
2022/12/22 09:05:25;;;;;;;62.45;19.08;;;9.30;99.90;;;;;;5117026;28;20488;-79
2022/12/22 09:08:23;;;;;;;;;;;9.00;99.90;;;;;;5093813;28;20480;-80
2022/12/22 09:11:20;;;;;;;55.45;18.08;;;7.60;99.90;;;;;;5095357;28;19920;-80
2022/12/22 09:13:53;;;;;;;55.38;16.42;;;6.70;99.90;;;;;;5101051;28;20051;-80
2022/12/22 09:16:23;;;;;;;33.60;13.77;;;10.30;99.90;;;;;;5083953;28;20051;-79
2022/12/22 09:19:03;;;;;;;40.40;14.52;;;8.10;99.90;;;;;;5085517;28;20047;-79
2022/12/22 09:22:00;;;;;;;32.80;12.75;;;9.00;99.90;;;;;;5094656;28;20056;-80
2022/12/22 09:24:30;;;;;;;41.50;14.13;;;5.80;99.90;;;;;;5117063;28;20048;-80
2022/12/22 09:27:24;;;;;;;39.05;15.13;;;8.20;99.90;;;;;;5118333;28;20376;-79
2022/12/22 09:29:58;;;;;;;36.30;12.98;;;9.80;99.90;;;;;;5081908;28;20039;-80
2022/12/22 09:32:36;;;;;;;38.05;14.80;;;8.30;99.90;;;;;;5100442;28;20044;-80
2022/12/22 09:35:06;;;;;;;36.03;15.40;;;8.40;99.90;;;;;;5100529;28;20051;-80
2022/12/22 09:37:44;;;;;;;41.25;15.68;;;6.90;99.90;;;;;;5100315;28;20048;-80
2022/12/22 09:40:13;;;;;;;35.45;14.55;;;11.00;99.90;;;;;;5082991;28;20044;-80
2022/12/22 09:42:43;;;;;;;35.53;15.05;;;8.50;99.90;;;;;;5099485;28;20039;-80
2022/12/22 09:45:21;;;;;;;33.38;13.85;;;8.60;99.90;;;;;;5082881;28;20040;-80
2022/12/22 09:51:16;;;;;;;33.38;15.48;;;8.70;99.90;;;;;;5106581;28;20050;-80
2022/12/22 09:54:00;;;;;;;39.03;14.75;;;6.20;99.90;;;;;;5099973;28;20031;-79
2022/12/22 09:56:32;;;;;;;35.15;13.82;;;9.00;99.90;;;;;;5082930;28;20482;-79
2022/12/22 09:59:59;;;;;;;31.67;12.55;;;9.00;99.90;;;;;;5086605;28;20491;-80
2022/12/22 10:02:53;;;;;;;27.70;11.40;;;11.10;99.90;;;;;;5084192;28;20043;-80
2022/12/22 10:05:37;;;;;;;31.15;12.38;;;9.00;99.90;;;;;;5081935;28;20043;-80
2022/12/22 10:08:28;;;;;;;24.35;11.70;;;9.00;99.90;;;;;;5099566;28;20035;-80
2022/12/22 10:11:13;;;;;;;21.02;10.05;;;9.40;99.90;;;;;;5116229;28;20415;-79
2022/12/22 10:13:46;;;;;;;32.95;11.75;;;9.10;99.90;;;;;;5083378;28;20375;-80
2022/12/22 10:16:27;;;;;;;23.67;9.25;;;10.50;99.90;;;;;;5116789;28;20054;-79
2022/12/22 10:19:38;;;;;;;22.73;7.55;;;9.20;99.90;;;;;;5099400;28;20039;-79
2022/12/22 10:22:25;;;;;;;;;;;8.40;99.90;;;;;;5082649;28;20047;-77
2022/12/22 10:25:02;;;;;;;24.65;9.05;;;9.20;99.90;;;;;;5081139;28;19938;-77
2022/12/22 10:27:36;;;;;;;30.80;9.15;;;8.90;99.90;;;;;;5068153;28;20039;-77
2022/12/22 10:30:31;;;;;;;29.20;9.23;;;9.60;99.90;;;;;;5097978;28;20211;-77
2022/12/22 10:33:22;;;;;;;23.15;8.45;;;8.30;99.90;;;;;;5095124;28;20044;-77
2022/12/22 10:36:06;;;;;;;29.23;9.35;;;9.30;99.90;;;;;;5116806;28;20052;-78
2022/12/22 10:39:10;;;;;;;27.35;9.52;;;8.70;99.90;;;;;;5082861;28;20052;-77
2022/12/22 10:41:54;;;;;;;32.67;9.75;;;9.40;99.90;;;;;;5100001;28;20055;-77
2022/12/22 10:44:34;;;;;;;39.53;11.50;;;9.50;99.90;;;;;;5098724;28;20066;-78
2022/12/22 10:47:27;;;;;;;41.78;10.52;;;11.10;99.90;;;;;;5116173;28;20365;-78
2022/12/22 10:50:12;;;;;;;50.22;11.43;;;9.40;99.90;;;;;;5065554;28;20518;-78
2022/12/22 10:53:44;;;;;;;60.33;11.32;;;9.40;99.90;;;;;;5074287;28;20079;-78
2022/12/22 10:56:40;;;;;;;49.58;11.68;;;9.50;99.90;;;;;;5116575;28;20051;-78
2022/12/22 10:59:41;;;;;;;53.15;12.32;;;10.30;99.90;;;;;;5098522;28;20051;-78
2022/12/22 11:02:49;;;;;;;65.18;11.95;;;9.70;99.90;;;;;;5081904;28;20383;-78
2022/12/22 11:05:56;;;;;;;63.20;10.52;;;9.80;99.90;;;;;;5114722;28;20043;-78
2022/12/22 11:08:52;;;;;;;55.38;12.10;;;8.40;99.90;;;;;;5091200;28;20048;-77
2022/12/22 11:11:56;;;;;;;59.75;9.48;;;10.50;99.90;;;;;;5100109;28;20046;-77
2022/12/22 11:15:30;;;;;;;50.85;9.57;;;10.00;99.90;;;;;;5115674;28;20043;-78
2022/12/22 11:18:23;;;;;;;71.18;10.63;;;10.20;99.90;;;;;;5083378;28;20040;-78
2022/12/22 11:21:32;;;;;;;67.97;9.38;;;10.20;99.90;;;;;;5083060;28;20047;-78
2022/12/22 11:24:26;;;;;;;69.10;9.70;;;10.50;99.90;;;;;;5079966;28;20047;-78
2022/12/22 11:27:21;;;;;;;65.20;8.77;;;9.80;99.90;;;;;;5116259;28;20059;-78
2022/12/22 11:30:08;;;;;;;59.63;8.65;;;10.40;99.90;;;;;;5099849;28;20047;-77
2022/12/22 11:32:58;;;;;;;65.35;9.02;;;10.40;99.90;;;;;;5115623;28;20047;-78
2022/12/22 11:35:39;;;;;;;57.60;8.48;;;10.30;99.90;;;;;;5080478;28;20051;-77
2022/12/22 11:38:46;;;;;;;61.92;8.65;;;10.50;99.90;;;;;;5096033;28;20048;-78
2022/12/22 11:42:16;;;;;;;51.70;8.95;;;10.50;99.90;;;;;;5021923;28;20048;-79
2022/12/22 11:48:47;;;;;;;52.60;9.77;;;10.60;99.90;;;;;;5013643;28;20386;-78
2022/12/22 11:51:35;;;;;;;48.88;7.88;;;10.80;99.90;;;;;;5035253;28;20053;-78
2022/12/22 11:55:36;;;;;;;61.25;8.57;;;10.80;99.90;;;;;;5029742;28;20473;-79
2022/12/22 11:58:42;;;;;;;54.05;8.30;;;10.70;99.90;;;;;;5036277;28;20052;-78
2022/12/22 12:01:47;;;;;;;51.47;8.27;;;10.60;99.90;;;;;;5036196;28;20045;-78
2022/12/22 12:05:03;;;;;;;52.00;8.77;;;10.80;99.90;;;;;;5034727;28;20049;-78
2022/12/22 12:07:41;;;;;;;;;;;10.70;99.90;;;;;;5052968;28;20413;-78
2022/12/22 12:10:33;;;;;;;38.05;5.00;;;12.70;99.90;;;;;;5051750;28;20316;-78
2022/12/22 12:14:04;;;;;;;31.33;4.93;;;8.70;99.90;;;;;;5017748;28;20401;-78
2022/12/22 12:17:18;;;;;;;34.42;4.95;;;11.00;99.90;;;;;;5019501;28;20048;-78
2022/12/22 12:20:24;;;;;;;40.00;5.22;;;8.90;99.90;;;;;;5111761;28;20055;-78
2022/12/22 12:24:04;;;;;;;35.50;5.95;;;11.10;99.90;;;;;;5100650;28;20046;-78
2022/12/22 12:27:03;;;;;;;34.28;4.85;;;11.00;99.90;;;;;;5013792;28;20049;-78
2022/12/22 12:30:02;;;;;;;37.65;5.63;;;11.10;99.90;;;;;;5084370;28;20058;-77
2022/12/22 12:33:22;;;;;;;37.72;5.63;;;11.10;99.90;;;;;;5105173;28;20055;-78
2022/12/22 12:36:21;;;;;;;39.10;5.15;;;11.10;99.90;;;;;;5101205;28;20363;-78
2022/12/22 12:38:49;;;;;;;36.42;5.78;;;11.10;99.90;;;;;;5100094;28;20047;-79
2022/12/22 12:42:01;;;;;;;42.80;5.78;;;11.10;99.90;;;;;;5104342;28;20380;-78
2022/12/22 12:44:37;;;;;;;42.28;5.85;;;11.40;99.90;;;;;;5100043;28;20059;-78
2022/12/22 12:47:28;;;;;;;38.17;5.22;;;11.80;99.90;;;;;;5085908;28;20043;-78
2022/12/22 12:50:27;;;;;;;37.92;6.00;;;11.40;99.90;;;;;;5117480;28;20039;-77
2022/12/22 12:53:09;;;;;;;47.85;6.00;;;11.20;99.90;;;;;;5085197;28;20058;-78
2022/12/22 12:55:38;;;;;;;42.22;5.88;;;11.20;99.90;;;;;;5084155;28;20043;-78
2022/12/22 12:58:10;;;;;;;;;;;9.50;99.90;;;;;;5117842;28;20062;-78
2022/12/22 13:00:48;;;;;;;44.58;7.05;;;10.70;99.90;;;;;;5118488;28;19919;-80
2022/12/22 13:03:46;;;;;;;53.28;7.68;;;11.20;99.90;;;;;;5117619;28;20050;-77
2022/12/22 13:06:48;;;;;;;39.67;6.38;;;11.30;99.90;;;;;;5100497;28;20364;-78
2022/12/22 13:09:23;;;;;;;53.72;7.05;;;11.80;99.90;;;;;;5099743;28;20048;-77
2022/12/22 13:12:47;;;;;;;49.83;6.65;;;11.30;99.90;;;;;;5099109;28;20039;-76
2022/12/22 13:15:31;;;;;;;34.70;6.22;;;11.40;99.90;;;;;;5066556;28;20058;-76
2022/12/22 13:18:28;;;;;;;39.53;6.68;;;11.40;99.90;;;;;;5082690;28;20396;-76
2022/12/22 13:21:26;;;;;;;49.38;7.10;;;10.90;99.90;;;;;;5087521;28;20063;-76
2022/12/22 13:24:28;;;;;;;45.20;6.63;;;10.70;99.90;;;;;;5099670;28;20043;-77
2022/12/22 13:27:09;;;;;;;54.00;7.18;;;11.20;99.90;;;;;;5099946;28;20043;-78
2022/12/22 13:29:46;;;;;;;50.92;6.80;;;12.60;99.90;;;;;;5117606;28;20051;-77
2022/12/22 13:32:44;;;;;;;49.83;5.95;;;11.50;99.90;;;;;;5098526;28;20055;-77
2022/12/22 13:35:35;;;;;;;56.28;7.45;;;11.40;99.90;;;;;;5079684;28;20476;-77
2022/12/22 13:38:32;;;;;;;58.97;6.43;;;11.40;99.90;;;;;;5094947;28;20044;-77
2022/12/22 13:41:11;;;;;;;45.55;5.90;;;11.50;99.90;;;;;;5092196;28;20044;-78
2022/12/22 13:44:02;;;;;;;59.30;6.25;;;11.50;99.90;;;;;;5080109;28;20066;-78
2022/12/22 13:46:33;;;;;;;56.53;6.20;;;11.50;99.90;;;;;;5062085;28;20476;-77
2022/12/22 13:49:06;;;;;;;46.58;6.03;;;12.00;99.90;;;;;;5096821;28;20062;-77
2022/12/22 13:51:37;;;;;;;44.95;5.60;;;11.70;99.90;;;;;;5078238;28;20487;-77
2022/12/22 13:54:08;;;;;;;50.88;5.88;;;12.10;99.90;;;;;;5057482;28;20059;-78
2022/12/22 13:59:54;;;;;;;42.13;5.70;;;11.20;99.90;;;;;;5113434;28;20054;-77
2022/12/22 14:02:22;;;;;;;44.58;5.70;;;11.30;99.90;;;;;;5098721;28;20054;-78
2022/12/22 14:05:30;;;;;;;47.25;5.72;;;11.30;99.90;;;;;;5077478;28;20043;-74
2022/12/22 14:08:04;;;;;;;46.25;5.38;;;11.30;99.90;;;;;;5117320;28;20047;-80
2022/12/22 14:11:10;;;;;;;44.05;5.68;;;11.30;99.90;;;;;;5092049;28;20048;-78
2022/12/22 14:13:41;;;;;;;39.92;5.50;;;10.60;99.90;;;;;;5059861;28;20044;-74
2022/12/22 14:16:14;;;;;;;37.92;5.07;;;10.30;99.90;;;;;;5099503;27;20572;-78
2022/12/22 14:18:42;;;;;;;49.03;6.45;;;11.30;99.90;;;;;;5083516;28;20055;-76
2022/12/22 14:21:11;;;;;;;46.60;6.57;;;11.20;99.90;;;;;;5102919;28;20047;-76
2022/12/22 14:23:41;;;;;;;47.35;6.32;;;11.20;99.90;;;;;;5115191;28;20047;-75
2022/12/22 14:26:16;;;;;;;39.67;7.13;;;11.20;99.90;;;;;;5116728;28;20043;-75
2022/12/22 14:28:52;;;;;;;47.05;7.70;;;11.90;99.90;;;;;;5099403;27;20055;-75
2022/12/22 14:31:24;;;;;;;39.95;6.93;;;11.80;99.90;;;;;;5105632;28;20043;-82
2022/12/22 14:34:28;;;;;;;;;;;11.10;99.90;;;;;;5098446;28;20043;-77
2022/12/22 14:37:01;;;;;;;48.25;8.10;;;11.90;99.90;;;;;;5115964;28;19920;-84
2022/12/22 14:40:33;;;;;;;52.00;7.88;;;11.10;99.90;;;;;;5080969;28;20059;-74
2022/12/22 14:43:04;;;;;;;46.38;7.88;;;11.10;99.90;;;;;;5078126;28;20048;-74
2022/12/22 14:45:32;;;;;;;47.90;7.53;;;11.00;99.90;;;;;;5077045;28;20476;-74
2022/12/22 14:47:59;;;;;;;;;;;11.10;99.90;;;;;;5062068;28;20040;-77
2022/12/22 14:50:28;;;;;;;35.70;5.95;;;11.00;99.90;;;;;;5076909;28;19998;-77
2022/12/22 14:53:01;;;;;;;43.13;7.20;;;11.10;99.90;;;;;;5078114;28;20051;-77
2022/12/22 14:55:36;;;;;;;37.08;6.25;;;11.00;99.90;;;;;;5095938;28;20070;-73
2022/12/22 14:58:09;;;;;;;36.05;5.90;;;11.10;99.90;;;;;;5076947;28;20055;-76
2022/12/22 15:00:42;;;;;;;41.97;5.78;;;11.00;99.90;;;;;;5044738;28;20052;-75
2022/12/22 15:03:31;;;;;;;42.70;6.65;;;11.00;99.90;;;;;;5078280;28;20048;-77
2022/12/22 15:06:26;;;;;;;38.03;6.13;;;11.10;99.90;;;;;;5045931;28;20468;-77
2022/12/22 15:09:23;;;;;;;44.60;6.38;;;11.10;99.90;;;;;;5095971;28;20040;-76
2022/12/22 15:12:14;;;;;;;38.10;5.93;;;11.10;99.90;;;;;;5076466;28;20055;-76
2022/12/22 15:14:42;;;;;;;40.03;5.85;;;11.00;99.90;;;;;;5095880;28;20048;-76
2022/12/22 15:17:22;;;;;;;39.63;5.70;;;12.30;99.90;;;;;;5077058;28;20368;-74
2022/12/22 15:19:53;;;;;;;36.63;5.40;;;11.10;99.90;;;;;;5100536;28;20044;-75
2022/12/22 15:22:21;;;;;;;36.83;5.30;;;11.20;99.90;;;;;;5063728;28;20062;-75
2022/12/22 15:24:49;;;;;;;39.70;6.03;;;11.00;99.90;;;;;;5095014;28;20052;-78
2022/12/22 15:27:17;;;;;;;35.45;5.57;;;11.70;99.90;;;;;;5115842;28;20051;-76
2022/12/22 15:29:44;;;;;;;40.63;5.95;;;11.00;99.90;;;;;;5097818;28;20051;-75
2022/12/22 15:32:12;;;;;;;33.55;5.63;;;11.30;99.90;;;;;;5114353;28;20044;-75
2022/12/22 15:34:40;;;;;;;39.30;5.50;;;11.00;99.90;;;;;;5097748;28;20036;-77
2022/12/22 15:37:10;;;;;;;30.98;5.57;;;11.00;99.90;;;;;;5096401;28;20047;-77
2022/12/22 15:39:39;;;;;;;33.35;5.25;;;11.00;99.90;;;;;;5115484;28;20087;-79
2022/12/22 15:42:06;;;;;;;39.30;5.95;;;11.00;99.90;;;;;;5115826;28;20055;-75
2022/12/22 15:44:34;;;;;;;36.65;5.85;;;10.90;99.90;;;;;;5096696;28;20054;-77
2022/12/22 15:47:08;;;;;;;47.60;6.28;;;10.90;99.90;;;;;;5097597;28;20047;-77
2022/12/22 15:49:36;;;;;;;54.80;6.95;;;10.80;99.90;;;;;;5115885;28;20059;-74
2022/12/22 15:52:05;;;;;;;58.33;6.82;;;10.90;99.90;;;;;;5096219;28;20048;-73
2022/12/22 15:54:32;;;;;;;51.97;6.25;;;10.90;99.90;;;;;;5115399;28;20040;-78
2022/12/22 15:57:00;;;;;;;57.10;6.60;;;10.80;99.90;;;;;;5096304;28;20040;-75
2022/12/22 15:59:28;;;;;;;;;;;11.70;99.90;;;;;;5097329;28;20048;-78
2022/12/22 16:01:56;;;;;;;62.25;7.13;;;10.80;99.90;;;;;;5114914;28;20271;-76
2022/12/22 16:04:28;;;;;;;70.63;7.72;;;11.20;99.90;;;;;;5114412;28;20050;-81
2022/12/22 16:06:57;;;;;;;56.28;7.38;;;10.70;99.90;;;;;;5115517;28;20047;-78
2022/12/22 16:09:31;;;;;;;74.15;7.75;;;10.70;99.90;;;;;;5080534;28;20047;-79
2022/12/22 16:11:58;;;;;;;81.72;8.63;;;10.70;99.90;;;;;;5114154;28;20055;-74
2022/12/22 16:14:26;;;;;;;81.05;8.10;;;10.60;99.90;;;;;;5114879;28;20043;-79
2022/12/22 16:17:00;;;;;;;79.45;9.82;;;10.80;99.90;;;;;;5095998;28;20460;-80
2022/12/22 16:19:27;;;;;;;79.85;9.05;;;10.60;99.90;;;;;;5097004;28;20070;-78
2022/12/22 16:21:55;;;;;;;78.88;9.02;;;10.60;99.90;;;;;;5114956;28;20050;-76
2022/12/22 16:24:28;;;;;;;96.95;10.30;;;11.00;99.90;;;;;;5113756;28;20040;-75
2022/12/22 16:26:56;;;;;;;87.32;8.88;;;10.50;99.90;;;;;;5115031;28;20464;-77
2022/12/22 16:29:25;;;;;;;77.70;9.32;;;10.50;99.90;;;;;;5114732;28;20039;-77
2022/12/22 16:32:16;;;;;;;91.32;9.55;;;10.40;99.90;;;;;;5113805;28;20049;-77
2022/12/22 16:34:44;;;;;;;84.47;9.07;;;10.40;99.90;;;;;;5114752;28;20039;-77
2022/12/22 16:37:12;;;;;;;93.20;9.90;;;10.50;99.90;;;;;;5096111;28;20044;-79
2022/12/22 16:39:40;;;;;;;92.78;9.73;;;10.50;99.90;;;;;;5114895;28;20047;-76
2022/12/22 16:42:16;;;;;;;94.75;9.80;;;10.50;99.90;;;;;;5096724;28;20048;-75
2022/12/22 16:45:03;;;;;;;93.47;9.95;;;11.10;99.90;;;;;;5113896;28;20032;-78
2022/12/22 16:47:34;;;;;;;100.32;10.13;;;10.50;99.90;;;;;;5096935;28;20054;-76
2022/12/22 16:50:02;;;;;;;89.07;9.57;;;10.60;99.90;;;;;;5095952;28;20472;-73
2022/12/22 16:52:41;;;;;;;99.25;10.15;;;10.60;99.90;;;;;;5096839;28;20040;-78
2022/12/22 16:55:20;;;;;;;100.57;10.68;;;10.60;99.90;;;;;;5114582;28;20055;-76
2022/12/22 16:57:48;;;;;;;89.40;10.10;;;10.90;99.90;;;;;;5095800;28;20388;-75
2022/12/22 17:00:20;;;;;;;98.03;10.77;;;11.00;99.90;;;;;;5096619;28;20044;-80
2022/12/22 17:02:51;;;;;;;103.22;11.02;;;10.60;99.90;;;;;;5097129;28;20478;-75
2022/12/22 17:05:50;;;;;;;86.28;10.85;;;10.80;99.90;;;;;;5079150;28;20043;-77
2022/12/22 17:08:24;;;;;;;99.97;10.20;;;10.70;99.90;;;;;;5080753;28;20051;-78
2022/12/22 17:10:53;;;;;;;83.88;10.50;;;10.70;99.90;;;;;;5115617;28;20483;-77
2022/12/22 17:13:21;;;;;;;93.03;10.85;;;10.70;99.90;;;;;;5118895;28;20050;-74
2022/12/22 17:15:49;;;;;;;81.72;10.32;;;10.70;99.90;;;;;;5100198;28;20043;-78
2022/12/22 17:18:21;;;;;;;81.47;9.93;;;10.70;99.90;;;;;;5117368;28;20384;-76
2022/12/22 17:20:53;;;;;;;73.63;10.00;;;10.70;99.90;;;;;;5118136;28;20518;-80
2022/12/22 17:23:41;;;;;;;83.53;10.00;;;10.70;99.90;;;;;;5116751;28;20052;-74
2022/12/22 17:26:13;;;;;;;89.03;11.25;;;10.70;99.90;;;;;;5100470;28;20055;-75
2022/12/22 17:28:42;;;;;;;82.05;10.10;;;9.50;99.90;;;;;;5083356;28;20044;-77
2022/12/22 17:31:21;;;;;;;89.88;11.07;;;10.70;99.90;;;;;;5098980;28;20374;-75
2022/12/22 17:33:49;;;;;;;73.10;9.82;;;10.70;99.90;;;;;;5083103;28;20129;-75